Time;durP1;ratioP1;P1;durP2;ratioP2;P2;SDS_P1;SDS_P2;PMS_P1;PMS_P2;Temp;Humidity;BMP_temperature;BMP_pressure;BME280_temperature;BME280_humidity;BME280_pressure;Samples;Min_cycle;Max_cycle;Signal;HPM_P1;HPM_P2
2024/01/13 00:00:45;;;;;;;91.70;37.43;;;-3.10;99.20;;;;;;5055500;28;20190;-75
2024/01/13 00:03:12;;;;;;;88.07;34.37;;;-3.20;99.40;;;;;;5051280;28;20234;-75
2024/01/13 00:05:38;;;;;;;84.80;36.10;;;-3.20;99.40;;;;;;5054104;28;20223;-75
2024/01/13 00:08:05;;;;;;;92.20;37.43;;;-3.10;99.30;;;;;;5051837;28;20198;-75
2024/01/13 00:10:38;;;;;;;86.13;38.60;;;-3.10;99.30;;;;;;5039133;28;20229;-78
2024/01/13 00:13:07;;;;;;;83.20;34.07;;;-3.00;99.00;;;;;;5051543;28;20210;-76
2024/01/13 00:15:35;;;;;;;81.37;33.73;;;-3.00;98.70;;;;;;5052945;28;20557;-75
2024/01/13 00:18:02;;;;;;;83.90;35.87;;;-2.80;98.60;;;;;;5048561;28;20217;-78
2024/01/13 00:20:29;;;;;;;84.20;34.50;;;-2.90;98.40;;;;;;5054951;28;20199;-76
2024/01/13 00:22:59;;;;;;;81.47;34.20;;;-3.00;98.60;;;;;;5052825;28;20198;-77
2024/01/13 00:25:27;;;;;;;88.77;36.40;;;-3.00;98.60;;;;;;5052182;28;20888;-75
2024/01/13 00:27:54;;;;;;;87.70;36.27;;;-3.00;98.60;;;;;;5052644;28;20208;-76
2024/01/13 00:30:21;;;;;;;78.70;36.83;;;-3.00;98.60;;;;;;5052449;28;20247;-75
2024/01/13 00:32:53;;;;;;;87.60;35.37;;;-3.00;98.60;;;;;;5051328;28;20210;-75
2024/01/13 00:35:19;;;;;;;85.73;35.47;;;-3.00;98.60;;;;;;5051465;28;20201;-76
2024/01/13 00:37:46;;;;;;;84.00;35.07;;;-2.90;98.60;;;;;;5050805;28;20206;-76
2024/01/13 00:40:13;;;;;;;79.87;35.73;;;-2.80;98.60;;;;;;5054627;28;20210;-75
2024/01/13 00:42:42;;;;;;;85.47;35.67;;;-2.90;98.20;;;;;;5055760;28;20202;-75
2024/01/13 00:45:12;;;;;;;73.73;32.87;;;-3.00;98.60;;;;;;5049467;28;20209;-76
2024/01/13 00:47:38;;;;;;;74.83;32.57;;;-2.90;98.10;;;;;;5044351;28;20325;-76
2024/01/13 00:50:07;;;;;;;77.93;33.83;;;-2.90;98.00;;;;;;5047435;28;20223;-76
2024/01/13 00:52:39;;;;;;;74.40;33.53;;;-2.90;97.80;;;;;;5053438;28;20212;-76
2024/01/13 00:55:07;;;;;;;72.23;33.03;;;-3.00;97.70;;;;;;5054867;28;20205;-75
2024/01/13 00:57:34;;;;;;;79.57;34.03;;;-3.20;97.80;;;;;;5058463;28;20574;-75
2024/01/13 01:00:00;;;;;;;71.57;33.13;;;-3.20;98.20;;;;;;5053037;28;20208;-74
2024/01/13 01:02:27;;;;;;;71.73;33.57;;;-3.30;98.10;;;;;;5045872;28;20202;-75
2024/01/13 01:04:54;;;;;;;74.57;33.83;;;-3.20;98.80;;;;;;5055729;28;20216;-74
2024/01/13 01:07:22;;;;;;;62.33;31.13;;;-3.30;98.50;;;;;;5054093;28;20210;-74
2024/01/13 01:09:55;;;;;;;61.77;30.13;;;-3.30;98.00;;;;;;5052777;28;20229;-74
2024/01/13 01:12:23;;;;;;;68.67;31.43;;;-3.30;97.90;;;;;;5056740;28;20190;-74
2024/01/13 01:14:51;;;;;;;62.93;30.33;;;-3.40;98.30;;;;;;5052364;28;20201;-74
2024/01/13 01:17:20;;;;;;;58.67;28.53;;;-3.30;98.10;;;;;;5052447;28;20217;-74
2024/01/13 01:19:48;;;;;;;54.63;26.07;;;-3.30;98.40;;;;;;5048586;28;20198;-74
2024/01/13 01:22:14;;;;;;;55.93;26.57;;;-3.40;98.10;;;;;;5054761;28;20200;-74
2024/01/13 01:24:43;;;;;;;49.03;25.53;;;-3.40;98.00;;;;;;5052168;28;20733;-74
2024/01/13 01:29:55;;;;;;;55.13;25.47;;;-3.40;97.90;;;;;;5047678;28;20232;-75
2024/01/13 01:32:22;;;;;;;62.40;28.87;;;-3.40;97.60;;;;;;5052201;28;20244;-75
2024/01/13 01:34:49;;;;;;;56.27;28.47;;;-3.40;97.70;;;;;;5052703;28;20217;-74
2024/01/13 01:37:15;;;;;;;60.33;27.50;;;-3.30;97.80;;;;;;5054418;28;20205;-74
2024/01/13 01:39:44;;;;;;;54.07;26.33;;;-3.30;97.60;;;;;;5050969;28;20217;-74
2024/01/13 01:42:32;;;;;;;48.87;23.37;;;-3.30;97.70;;;;;;5056907;28;20202;-74
2024/01/13 01:44:59;;;;;;;46.00;21.13;;;-3.30;98.30;;;;;;5049087;28;20207;-74
2024/01/13 01:47:28;;;;;;;44.70;22.03;;;-3.20;97.80;;;;;;5052426;28;20210;-74
2024/01/13 01:49:54;;;;;;;46.77;23.00;;;-3.20;97.50;;;;;;5053865;28;20217;-76
2024/01/13 01:52:23;;;;;;;50.67;23.53;;;-3.30;97.50;;;;;;5052997;28;20205;-77
2024/01/13 01:54:53;;;;;;;56.80;23.90;;;-3.40;98.30;;;;;;5050188;28;20194;-74
2024/01/13 01:57:43;;;;;;;50.53;24.53;;;-3.30;98.40;;;;;;5053785;28;20264;-74
2024/01/13 02:00:31;;;;;;;48.73;23.80;;;-3.40;98.50;;;;;;5051019;28;20216;-74
2024/01/13 02:02:58;;;;;;;50.87;24.67;;;-3.40;98.50;;;;;;5050574;28;20210;-75
2024/01/13 02:05:26;;;;;;;50.20;24.47;;;-3.30;98.50;;;;;;5055624;28;20217;-74
2024/01/13 02:08:09;;;;;;;47.43;22.77;;;-3.20;98.50;;;;;;5055453;28;20189;-74
2024/01/13 02:10:37;;;;;;;43.40;22.47;;;-3.20;98.60;;;;;;5048852;28;20228;-74
2024/01/13 02:13:04;;;;;;;49.27;23.70;;;-3.10;98.60;;;;;;5056522;28;20205;-75
2024/01/13 02:15:54;;;;;;;48.63;23.50;;;-3.10;98.10;;;;;;5048485;28;20198;-74
2024/01/13 02:18:20;;;;;;;48.13;23.30;;;-3.20;98.50;;;;;;5052149;28;20206;-74
2024/01/13 02:20:48;;;;;;;48.23;23.33;;;-3.20;98.50;;;;;;5054525;28;20198;-74
2024/01/13 02:23:16;;;;;;;46.43;22.70;;;-3.20;98.50;;;;;;5048463;28;20209;-74
2024/01/13 02:25:45;;;;;;;46.13;22.63;;;-3.20;98.50;;;;;;5048509;28;20201;-77
2024/01/13 02:28:12;;;;;;;48.50;23.00;;;-3.20;98.50;;;;;;5059521;28;20193;-75
2024/01/13 02:30:39;;;;;;;40.50;22.10;;;-3.00;98.60;;;;;;5037199;28;20214;-75
2024/01/13 02:33:06;;;;;;;45.67;23.37;;;-3.00;98.10;;;;;;5047277;28;20198;-75
2024/01/13 02:35:35;;;;;;;50.10;23.47;;;-3.10;97.50;;;;;;5054459;28;20557;-75
2024/01/13 02:38:09;;;;;;;45.93;22.70;;;-3.10;97.60;;;;;;5056826;28;20210;-75
2024/01/13 02:40:37;;;;;;;46.47;23.47;;;-3.20;97.70;;;;;;5063162;28;20646;-77
2024/01/13 02:43:12;;;;;;;47.43;22.93;;;-3.30;97.80;;;;;;5060390;28;20568;-75
2024/01/13 02:45:39;;;;;;;47.87;23.47;;;-3.20;97.90;;;;;;5054228;28;20236;-74
2024/01/13 02:48:11;;;;;;;49.87;25.07;;;-3.00;97.50;;;;;;5074157;28;20203;-75
2024/01/13 02:50:37;;;;;;;48.90;25.10;;;-3.10;96.90;;;;;;5053617;28;21459;-75
2024/01/13 02:53:05;;;;;;;51.90;24.97;;;-3.20;97.20;;;;;;5059531;28;20209;-75
2024/01/13 02:55:31;;;;;;;49.57;23.83;;;-3.10;97.80;;;;;;5059607;28;20198;-74
2024/01/13 02:57:59;;;;;;;50.57;23.60;;;-3.10;97.40;;;;;;5057562;28;20199;-74
2024/01/13 03:00:26;;;;;;;50.93;24.53;;;-3.00;97.40;;;;;;5056716;28;20564;-75
2024/01/13 03:02:53;;;;;;;47.80;24.13;;;-3.00;96.80;;;;;;5056486;28;20856;-75
2024/01/13 03:05:20;;;;;;;50.17;24.27;;;-3.00;96.80;;;;;;5056681;28;20583;-78
2024/01/13 03:07:47;;;;;;;49.27;24.50;;;-3.00;96.90;;;;;;5053411;28;20209;-75
2024/01/13 03:10:36;;;;;;;49.33;23.87;;;-3.00;96.90;;;;;;5052762;28;20253;-75
2024/01/13 03:13:05;;;;;;;48.60;24.47;;;-3.10;96.90;;;;;;5057462;28;20600;-75
2024/01/13 03:15:31;;;;;;;51.27;24.47;;;-3.00;96.80;;;;;;5054202;28;20198;-74
2024/01/13 03:17:58;;;;;;;50.93;25.60;;;-3.00;96.70;;;;;;5056215;28;20208;-75
2024/01/13 03:20:45;;;;;;;47.17;25.63;;;-2.90;96.30;;;;;;5042875;28;20292;-75
2024/01/13 03:23:11;;;;;;;51.60;25.30;;;-3.00;96.30;;;;;;5051777;28;20209;-75
2024/01/13 03:25:38;;;;;;;51.17;25.43;;;-3.00;96.70;;;;;;5048732;28;20194;-75
2024/01/13 03:28:06;;;;;;;46.63;24.27;;;-3.00;96.90;;;;;;5051640;28;20256;-75
2024/01/13 03:30:33;;;;;;;49.90;25.73;;;-3.10;97.10;;;;;;5056794;28;20243;-74
2024/01/13 03:33:03;;;;;;;49.10;24.20;;;-3.00;96.70;;;;;;5058939;28;20216;-75
2024/01/13 03:35:31;;;;;;;51.17;24.17;;;-3.00;96.70;;;;;;5049943;28;20205;-75
2024/01/13 03:37:58;;;;;;;44.57;24.23;;;-3.00;96.00;;;;;;5052350;28;20214;-75
2024/01/13 03:40:24;;;;;;;44.23;23.70;;;-3.10;96.00;;;;;;5054872;28;20236;-76
2024/01/13 03:42:51;;;;;;;45.40;23.27;;;-3.10;96.40;;;;;;5054493;28;21307;-75
2024/01/13 03:45:21;;;;;;;48.70;24.73;;;-3.30;96.50;;;;;;5057518;28;20213;-75
2024/01/13 03:47:47;;;;;;;48.10;24.67;;;-3.40;96.80;;;;;;5065839;28;20199;-74
2024/01/13 03:50:46;;;;;;;48.27;25.00;;;-3.40;97.50;;;;;;5051455;28;20220;-74
2024/01/13 03:53:13;;;;;;;51.03;25.30;;;-3.40;97.80;;;;;;5049718;28;20202;-75
2024/01/13 03:55:43;;;;;;;48.90;23.80;;;-3.50;97.80;;;;;;5052021;28;20202;-75
2024/01/13 03:58:11;;;;;;;48.07;24.30;;;-3.50;97.80;;;;;;5054071;28;20222;-75
2024/01/13 04:00:39;;;;;;;48.73;24.47;;;-3.40;97.70;;;;;;5060558;28;20193;-75
2024/01/13 04:03:11;;;;;;;51.37;25.43;;;-3.50;97.60;;;;;;5052002;28;20193;-76
2024/01/13 04:05:38;;;;;;;48.37;24.70;;;-3.50;97.90;;;;;;5057279;28;20233;-76
2024/01/13 04:08:05;;;;;;;48.20;26.33;;;-3.50;98.50;;;;;;5047710;28;21493;-75
2024/01/13 04:10:32;;;;;;;50.60;25.67;;;-3.50;98.00;;;;;;5052155;28;20713;-75
2024/01/13 04:13:00;;;;;;;44.77;23.67;;;-3.50;98.00;;;;;;5056918;28;20198;-75
2024/01/13 04:15:27;;;;;;;46.33;24.03;;;-3.50;98.10;;;;;;5052668;28;20203;-76
2024/01/13 04:17:55;;;;;;;48.97;24.97;;;-3.50;97.90;;;;;;5054027;28;20207;-75
2024/01/13 04:20:22;;;;;;;50.97;25.27;;;-3.60;97.90;;;;;;5053863;28;20202;-75
2024/01/13 04:22:49;;;;;;;49.13;24.80;;;-3.60;98.40;;;;;;5053434;28;20197;-75
2024/01/13 04:25:16;;;;;;;48.73;25.00;;;-3.40;98.20;;;;;;5047090;28;20201;-75
2024/01/13 04:27:42;;;;;;;50.90;25.23;;;-3.40;97.60;;;;;;5057346;28;20201;-75
2024/01/13 04:30:10;;;;;;;54.17;25.67;;;-3.30;97.40;;;;;;5055339;28;20230;-76
2024/01/13 04:32:38;;;;;;;49.60;24.43;;;-3.30;97.10;;;;;;5057909;28;20199;-74
2024/01/13 04:35:42;;;;;;;46.00;24.60;;;-3.40;97.00;;;;;;5053679;28;20213;-75
2024/01/13 04:40:50;;;;;;;48.30;24.13;;;-3.50;97.40;;;;;;5033555;28;20201;-75
2024/01/13 04:43:16;;;;;;;47.87;24.43;;;-3.50;97.80;;;;;;5054922;28;20204;-75
2024/01/13 04:45:43;;;;;;;45.27;23.37;;;-3.60;98.10;;;;;;5051377;28;20221;-78
2024/01/13 04:48:12;;;;;;;47.63;23.93;;;-3.50;97.90;;;;;;5054807;28;20208;-75
2024/01/13 04:50:40;;;;;;;46.80;23.03;;;-3.50;97.60;;;;;;5049985;28;20869;-75
2024/01/13 04:53:07;;;;;;;44.77;22.93;;;-3.50;97.80;;;;;;5055289;28;20201;-76
2024/01/13 04:55:36;;;;;;;41.37;21.90;;;-3.50;97.50;;;;;;5056529;28;20277;-75
2024/01/13 04:58:04;;;;;;;48.90;23.90;;;-3.40;97.60;;;;;;5051650;28;20849;-75
2024/01/13 05:00:33;;;;;;;49.30;23.13;;;-3.40;97.20;;;;;;5054682;28;20202;-75
2024/01/13 05:03:01;;;;;;;48.07;23.23;;;-3.50;97.30;;;;;;5049632;28;20200;-74
2024/01/13 05:05:28;;;;;;;45.60;22.57;;;-3.50;97.60;;;;;;5057583;28;20221;-74
2024/01/13 05:07:56;;;;;;;43.47;22.43;;;-3.60;97.80;;;;;;5052098;28;20285;-75
2024/01/13 05:10:23;;;;;;;44.30;21.50;;;-3.60;98.40;;;;;;5044353;28;20225;-75
2024/01/13 05:12:49;;;;;;;44.40;22.50;;;-3.40;98.00;;;;;;5048077;28;20197;-74
2024/01/13 05:15:16;;;;;;;42.90;22.03;;;-3.30;97.60;;;;;;5056192;28;20197;-76
2024/01/13 05:17:42;;;;;;;45.13;22.03;;;-3.30;97.40;;;;;;5052608;28;20202;-74
2024/01/13 05:20:10;;;;;;;44.87;22.10;;;-3.30;97.00;;;;;;5055052;28;20209;-74
2024/01/13 05:22:37;;;;;;;46.93;22.30;;;-3.50;97.40;;;;;;5059601;28;20194;-74
2024/01/13 05:25:07;;;;;;;44.13;22.13;;;-3.50;97.70;;;;;;5058481;28;20217;-76
2024/01/13 05:27:34;;;;;;;46.90;22.50;;;-3.60;97.80;;;;;;5052248;28;20213;-74
2024/01/13 05:30:01;;;;;;;51.53;24.87;;;-3.50;98.50;;;;;;5058678;28;20197;-76
2024/01/13 05:32:40;;;;;;;49.70;24.07;;;-3.60;98.50;;;;;;5048693;28;20209;-74
2024/01/13 05:35:08;;;;;;;52.27;24.40;;;-3.60;98.70;;;;;;5054064;28;20282;-76
2024/01/13 05:37:35;;;;;;;46.83;23.30;;;-3.50;98.20;;;;;;5055723;28;20532;-76
2024/01/13 05:40:04;;;;;;;47.30;23.40;;;-3.50;97.70;;;;;;5056587;28;20194;-76
2024/01/13 05:42:32;;;;;;;44.27;22.80;;;-3.70;97.80;;;;;;5058749;28;20393;-75
2024/01/13 05:44:58;;;;;;;48.27;24.60;;;-3.80;98.20;;;;;;5051052;28;20198;-76
2024/01/13 05:47:25;;;;;;;49.40;23.97;;;-3.80;98.40;;;;;;5056934;28;20204;-75
2024/01/13 05:49:52;;;;;;;53.67;25.20;;;-3.90;98.40;;;;;;5050725;28;20253;-76
2024/01/13 05:52:19;;;;;;;51.03;24.57;;;-3.90;98.40;;;;;;5057022;28;20236;-76
2024/01/13 05:54:46;;;;;;;53.17;24.50;;;-3.80;98.90;;;;;;5053643;28;20202;-74
2024/01/13 05:57:12;;;;;;;51.47;25.47;;;-3.60;98.40;;;;;;5056590;28;20205;-75
2024/01/13 05:59:44;;;;;;;51.27;25.87;;;-3.50;97.70;;;;;;5050044;28;21258;-76
2024/01/13 06:02:34;;;;;;;49.67;24.57;;;-3.50;97.50;;;;;;5048438;28;20205;-75
2024/01/13 06:05:00;;;;;;;51.80;25.37;;;-3.50;97.60;;;;;;5046531;28;20742;-76
2024/01/13 06:07:27;;;;;;;52.53;27.50;;;-3.30;97.60;;;;;;5055990;28;20716;-75
2024/01/13 06:09:55;;;;;;;58.10;27.87;;;-3.20;97.00;;;;;;5053953;28;20197;-75
2024/01/13 06:12:45;;;;;;;54.37;27.43;;;-3.30;96.80;;;;;;5049069;28;20205;-76
2024/01/13 06:15:13;;;;;;;59.63;28.23;;;-3.40;96.80;;;;;;5055438;28;20263;-75
2024/01/13 06:17:43;;;;;;;63.07;29.60;;;-3.60;97.00;;;;;;5055236;28;20197;-75
2024/01/13 06:20:10;;;;;;;60.63;27.80;;;-3.60;97.50;;;;;;5063416;28;20205;-77
2024/01/13 06:22:37;;;;;;;58.57;27.57;;;-3.50;97.80;;;;;;5056488;28;20557;-75
2024/01/13 06:25:04;;;;;;;57.53;28.97;;;-3.50;97.90;;;;;;5059958;28;20201;-75
2024/01/13 06:27:39;;;;;;;55.97;26.80;;;-3.60;97.80;;;;;;5060629;28;20227;-76
2024/01/13 06:30:08;;;;;;;54.87;27.40;;;-3.60;97.90;;;;;;5054044;28;20696;-76
2024/01/13 06:32:36;;;;;;;56.07;26.97;;;-3.60;98.10;;;;;;5055061;28;20226;-78
2024/01/13 06:35:07;;;;;;;57.13;25.90;;;-3.70;97.80;;;;;;5054542;28;20200;-75
2024/01/13 06:37:33;;;;;;;63.63;26.93;;;-3.80;98.40;;;;;;5055435;28;20213;-76
2024/01/13 06:40:00;;;;;;;55.00;26.63;;;-3.80;98.40;;;;;;5056384;28;20198;-76
2024/01/13 06:42:28;;;;;;;56.80;26.70;;;-3.70;98.40;;;;;;5061849;28;20197;-76
2024/01/13 06:44:55;;;;;;;59.70;26.77;;;-3.60;98.40;;;;;;5057379;28;20217;-76
2024/01/13 06:47:22;;;;;;;52.60;26.30;;;-3.60;98.40;;;;;;5058919;28;20194;-75
2024/01/13 06:49:50;;;;;;;61.67;27.90;;;-3.60;98.40;;;;;;5062996;28;20712;-78
2024/01/13 06:52:17;;;;;;;60.13;27.57;;;-3.70;98.40;;;;;;5062576;28;20303;-78
2024/01/13 06:54:44;;;;;;;56.07;27.00;;;-3.70;98.40;;;;;;5055444;28;20200;-76
2024/01/13 06:57:10;;;;;;;61.80;27.17;;;-3.50;98.60;;;;;;5057726;28;20201;-76
2024/01/13 06:59:37;;;;;;;59.70;27.40;;;-3.50;98.70;;;;;;5052811;28;20259;-76
2024/01/13 07:02:05;;;;;;;59.00;27.97;;;-3.60;98.40;;;;;;5063003;28;20210;-76
2024/01/13 07:04:31;;;;;;;57.43;27.43;;;-3.70;98.40;;;;;;5055228;28;20228;-76
2024/01/13 07:06:59;;;;;;;59.30;28.67;;;-3.60;98.40;;;;;;5059050;28;20194;-76
2024/01/13 07:09:26;;;;;;;63.17;28.90;;;-3.70;98.40;;;;;;5052518;28;20199;-75
2024/01/13 07:11:57;;;;;;;61.97;26.67;;;-3.70;98.40;;;;;;5055306;28;20225;-75
2024/01/13 07:14:23;;;;;;;59.83;28.10;;;-3.70;98.70;;;;;;5055271;28;20655;-75
2024/01/13 07:16:54;;;;;;;65.93;27.77;;;-3.80;98.40;;;;;;5054552;28;20224;-77
2024/01/13 07:19:21;;;;;;;61.93;28.33;;;-3.90;98.50;;;;;;5050390;28;20201;-78
2024/01/13 07:21:47;;;;;;;66.07;28.50;;;-3.90;98.90;;;;;;5058037;28;20194;-78
2024/01/13 07:24:16;;;;;;;60.13;26.97;;;-3.90;98.70;;;;;;5051558;28;20202;-77
2024/01/13 07:26:44;;;;;;;54.83;25.23;;;-3.80;98.60;;;;;;5054607;28;20654;-77
2024/01/13 07:29:11;;;;;;;52.00;24.53;;;-3.60;98.80;;;;;;5045584;28;20208;-79
2024/01/13 07:31:38;;;;;;;49.53;24.13;;;-3.40;98.50;;;;;;5039953;28;20764;-76
2024/01/13 07:34:13;;;;;;;48.93;22.80;;;-3.40;98.00;;;;;;5043355;28;21041;-81
2024/01/13 07:36:40;;;;;;;48.40;23.77;;;-3.30;97.40;;;;;;5058685;28;20280;-76
2024/01/13 07:39:09;;;;;;;49.23;23.30;;;-3.30;96.70;;;;;;5061553;28;20214;-77
2024/01/13 07:41:48;;;;;;;53.17;24.17;;;-3.40;96.80;;;;;;5054313;28;20198;-76
2024/01/13 07:44:15;;;;;;;51.60;23.80;;;-3.40;96.80;;;;;;5063986;28;20285;-76
2024/01/13 07:46:42;;;;;;;55.13;25.03;;;-3.50;96.80;;;;;;5060835;28;20202;-76
2024/01/13 07:49:09;;;;;;;54.83;24.10;;;-3.60;97.30;;;;;;5059951;28;20209;-76
2024/01/13 07:51:36;;;;;;;47.67;23.13;;;-3.50;97.20;;;;;;5055028;28;20658;-76
2024/01/13 07:54:03;;;;;;;46.17;21.90;;;-3.60;97.00;;;;;;5049969;28;21015;-76
2024/01/13 07:56:39;;;;;;;46.77;21.60;;;-3.60;97.40;;;;;;5052670;28;20202;-76
2024/01/13 07:59:07;;;;;;;47.33;23.20;;;-3.60;97.30;;;;;;5046008;28;20568;-80
2024/01/13 08:01:34;;;;;;;49.40;22.40;;;-3.40;97.20;;;;;;5054972;28;20202;-77
2024/01/13 08:04:01;;;;;;;48.50;23.30;;;-3.40;97.30;;;;;;5055774;28;20594;-80
2024/01/13 08:06:32;;;;;;;48.60;22.33;;;-3.40;96.80;;;;;;5051879;28;20198;-77
2024/01/13 08:08:58;;;;;;;48.13;23.00;;;-3.30;97.20;;;;;;5051418;28;20190;-76
2024/01/13 08:11:25;;;;;;;43.07;21.80;;;-3.20;97.10;;;;;;5057141;28;20221;-76
2024/01/13 08:13:52;;;;;;;44.07;21.03;;;-3.30;97.00;;;;;;5052099;28;20202;-82
2024/01/13 08:16:20;;;;;;;41.47;20.53;;;-3.10;97.00;;;;;;5041295;28;20202;-77
2024/01/13 08:18:47;;;;;;;42.13;20.23;;;-3.00;96.30;;;;;;5048168;28;20214;-76
2024/01/13 08:21:14;;;;;;;41.00;19.53;;;-2.70;95.80;;;;;;5059972;28;20198;-76
2024/01/13 08:23:41;;;;;;;41.67;20.30;;;-2.90;95.10;;;;;;5048907;28;20254;-76
2024/01/13 08:26:10;;;;;;;39.93;20.60;;;-3.00;95.40;;;;;;5043477;28;20224;-76
2024/01/13 08:28:37;;;;;;;40.77;20.47;;;-3.00;96.00;;;;;;5051330;28;20207;-75
2024/01/13 08:31:04;;;;;;;35.93;19.77;;;-3.00;96.20;;;;;;5054453;28;20199;-77
2024/01/13 08:33:32;;;;;;;37.70;18.60;;;-3.00;96.00;;;;;;5050789;28;20203;-76
2024/01/13 08:35:59;;;;;;;37.17;18.37;;;-2.90;96.10;;;;;;5051144;28;20190;-75
2024/01/13 08:38:26;;;;;;;34.07;17.37;;;-2.90;95.80;;;;;;5058976;28;20214;-76
2024/01/13 08:40:54;;;;;;;40.37;21.50;;;-3.00;95.90;;;;;;5050150;28;20203;-76
2024/01/13 08:43:21;;;;;;;40.97;20.23;;;-2.80;96.00;;;;;;5050253;28;20222;-75
2024/01/13 08:45:47;;;;;;;43.80;21.10;;;-2.90;95.40;;;;;;5052788;28;20243;-75
2024/01/13 08:48:15;;;;;;;41.03;21.40;;;-3.00;95.30;;;;;;5058189;28;20211;-88
2024/01/13 08:50:44;;;;;;;42.30;21.53;;;-3.10;95.50;;;;;;5052750;28;20711;-85
2024/01/13 08:53:10;;;;;;;45.43;22.07;;;-3.10;96.00;;;;;;5054207;28;20694;-77
2024/01/13 08:55:37;;;;;;;45.10;21.33;;;-2.90;95.80;;;;;;5051239;28;20212;-78
2024/01/13 08:58:04;;;;;;;39.93;20.03;;;-2.90;95.40;;;;;;5048641;28;20202;-77
2024/01/13 09:00:32;;;;;;;41.57;21.00;;;-2.70;95.60;;;;;;5055034;28;20202;-77
2024/01/13 09:02:59;;;;;;;45.70;21.43;;;-2.60;95.50;;;;;;5055128;28;20202;-77
2024/01/13 09:05:27;;;;;;;40.83;20.30;;;-2.60;95.00;;;;;;5052696;28;20219;-76
2024/01/13 09:07:57;;;;;;;36.23;18.27;;;-2.60;95.40;;;;;;5050233;28;20277;-75
2024/01/13 09:10:24;;;;;;;33.27;16.97;;;-2.20;94.80;;;;;;5050050;28;20232;-75
2024/01/13 09:12:51;;;;;;;31.63;16.73;;;-2.00;93.60;;;;;;5047106;28;20217;-76
2024/01/13 09:15:18;;;;;;;34.87;18.10;;;-1.90;92.80;;;;;;5054459;28;20295;-75
2024/01/13 09:17:45;;;;;;;36.23;18.17;;;-2.00;92.60;;;;;;5049057;28;20268;-75
2024/01/13 09:20:12;;;;;;;34.20;17.77;;;-2.10;93.90;;;;;;5050024;28;20224;-75
2024/01/13 09:22:39;;;;;;;30.87;16.03;;;-2.10;93.60;;;;;;5053472;28;20253;-74
2024/01/13 09:25:08;;;;;;;28.37;16.03;;;-2.10;93.60;;;;;;5052961;28;20208;-73
2024/01/13 09:27:35;;;;;;;28.03;15.20;;;-2.10;93.20;;;;;;5050770;28;20594;-73
2024/01/13 09:30:02;;;;;;;29.37;14.80;;;-2.10;92.90;;;;;;5051136;28;20212;-73
2024/01/13 09:32:29;;;;;;;29.47;16.27;;;-2.20;92.70;;;;;;5049104;28;20218;-75
2024/01/13 09:34:56;;;;;;;34.00;17.50;;;-2.30;93.10;;;;;;5034102;28;20202;-74
2024/01/13 09:37:23;;;;;;;32.90;17.83;;;-2.40;92.90;;;;;;5037017;28;20212;-74
2024/01/13 09:39:49;;;;;;;30.20;16.63;;;-2.30;93.30;;;;;;5054140;28;20229;-74
2024/01/13 09:42:28;;;;;;;31.90;17.27;;;-2.30;93.50;;;;;;5050562;28;20650;-74
2024/01/13 09:44:55;;;;;;;32.93;17.90;;;-2.40;93.10;;;;;;5051976;28;20204;-75
2024/01/13 09:47:22;;;;;;;32.67;17.73;;;-2.40;93.30;;;;;;5053061;28;20209;-74
2024/01/13 09:49:52;;;;;;;32.50;17.87;;;-2.20;93.60;;;;;;5051486;28;20760;-75
2024/01/13 09:52:19;;;;;;;33.10;17.23;;;-2.10;93.10;;;;;;5050049;28;20673;-75
2024/01/13 09:54:51;;;;;;;29.60;16.17;;;-2.10;93.00;;;;;;5053127;28;20650;-74
2024/01/13 09:57:19;;;;;;;29.60;16.60;;;-2.20;93.00;;;;;;5047839;28;20190;-76
2024/01/13 09:59:47;;;;;;;27.40;15.67;;;-1.90;92.60;;;;;;5050307;28;20320;-76
2024/01/13 10:02:15;;;;;;;31.17;16.43;;;-1.70;92.30;;;;;;5059237;28;20212;-74
2024/01/13 10:04:45;;;;;;;28.27;16.47;;;-1.80;92.00;;;;;;5043607;28;20276;-74
2024/01/13 10:09:55;;;;;;;27.47;15.40;;;-1.80;92.20;;;;;;5039959;28;20194;-76
2024/01/13 10:12:24;;;;;;;27.83;14.70;;;-1.80;91.80;;;;;;5052085;28;20252;-74
2024/01/13 10:14:50;;;;;;;25.97;13.93;;;-1.80;92.00;;;;;;5057092;28;20272;-75
2024/01/13 10:17:17;;;;;;;23.77;13.80;;;-1.60;91.50;;;;;;5055533;28;20193;-74
2024/01/13 10:19:45;;;;;;;25.90;14.47;;;-1.50;91.40;;;;;;5058889;28;20280;-73
2024/01/13 10:22:12;;;;;;;26.00;14.60;;;-1.40;90.70;;;;;;5045815;28;20217;-75
2024/01/13 10:24:39;;;;;;;25.90;15.10;;;-1.40;91.00;;;;;;5045391;28;20806;-76
2024/01/13 10:27:08;;;;;;;30.60;17.13;;;-1.30;91.10;;;;;;5039885;28;20287;-74
2024/01/13 10:29:41;;;;;;;40.20;20.77;;;-0.90;90.10;;;;;;5045104;28;20206;-74
2024/01/13 10:32:10;;;;;;;41.30;20.43;;;-1.20;89.10;;;;;;5048012;28;20221;-74
2024/01/13 10:34:37;;;;;;;40.93;21.10;;;-1.60;90.60;;;;;;5049376;28;20201;-74
2024/01/13 10:37:11;;;;;;;38.63;20.53;;;-1.70;91.10;;;;;;5058842;28;20311;-73
2024/01/13 10:39:38;;;;;;;38.07;19.57;;;-1.90;90.70;;;;;;5044793;28;20208;-73
2024/01/13 10:42:08;;;;;;;38.63;19.93;;;-2.00;91.40;;;;;;5044655;28;20205;-74
2024/01/13 10:47:53;;;;;;;34.60;18.67;;;-1.90;92.20;;;;;;5045322;28;20381;-74
2024/01/13 10:50:21;;;;;;;34.53;18.87;;;-0.30;96.90;;;;;;5043134;28;20208;-74
2024/01/13 10:52:57;;;;;;;35.00;19.33;;;-0.30;85.60;;;;;;5055184;28;20845;-78
2024/01/13 10:55:25;;;;;;;35.83;19.53;;;-0.80;86.30;;;;;;5053026;28;20207;-74
2024/01/13 10:57:52;;;;;;;32.27;18.60;;;-0.70;90.30;;;;;;5052882;28;20260;-76
2024/01/13 11:00:21;;;;;;;36.60;19.23;;;-0.60;90.20;;;;;;5053888;28;20202;-75
2024/01/13 11:05:38;;;;;;;35.33;20.40;;;-1.30;90.80;;;;;;5052128;28;20221;-74
2024/01/13 11:08:06;;;;;;;38.50;20.97;;;-1.10;91.40;;;;;;5048259;28;20230;-74
2024/01/13 11:10:36;;;;;;;36.10;20.40;;;-1.30;90.10;;;;;;5053471;28;20196;-74
2024/01/13 11:13:13;;;;;;;95.73;50.90;;;-1.60;90.80;;;;;;5050619;28;20240;-74
2024/01/13 11:15:44;;;;;;;37.13;20.10;;;-1.30;94.90;;;;;;5053276;28;20200;-74
2024/01/13 11:18:13;;;;;;;37.70;21.30;;;-0.40;91.90;;;;;;5058550;28;20208;-74
2024/01/13 11:21:01;;;;;;;34.53;19.37;;;-0.50;88.10;;;;;;5055932;28;20197;-74
2024/01/13 11:23:28;;;;;;;37.40;20.57;;;-0.70;86.60;;;;;;5057699;28;20351;-73
2024/01/13 11:25:55;;;;;;;38.70;21.73;;;-0.60;87.00;;;;;;5051044;28;20212;-73
2024/01/13 11:28:22;;;;;;;43.40;22.83;;;-0.80;86.50;;;;;;5056414;28;20209;-73
2024/01/13 11:30:49;;;;;;;48.47;24.30;;;-0.80;86.10;;;;;;5054766;28;20209;-73
2024/01/13 11:33:16;;;;;;;45.53;24.20;;;-0.60;85.80;;;;;;5053864;28;20235;-74
2024/01/13 11:35:46;;;;;;;44.53;25.03;;;-0.60;86.30;;;;;;5060551;28;20587;-73
2024/01/13 11:40:56;;;;;;;49.10;25.00;;;-1.10;88.30;;;;;;5054563;28;20212;-74
2024/01/13 11:43:24;;;;;;;44.23;23.17;;;-1.30;89.60;;;;;;5055208;28;20201;-75
2024/01/13 11:45:54;;;;;;;46.10;23.70;;;-1.30;90.00;;;;;;5053382;28;20222;-74
2024/01/13 11:48:46;;;;;;;47.93;23.73;;;-1.40;90.10;;;;;;5049782;28;20315;-77
2024/01/13 11:51:14;;;;;;;41.77;21.37;;;-1.50;90.10;;;;;;5033627;28;20202;-75
2024/01/13 11:53:43;;;;;;;36.03;20.40;;;-1.80;90.30;;;;;;5054154;28;20896;-77
2024/01/13 11:56:11;;;;;;;36.83;21.03;;;-1.90;91.10;;;;;;5051641;28;20284;-74
2024/01/13 11:58:39;;;;;;;35.93;20.37;;;-1.90;90.50;;;;;;5050097;28;20203;-73
2024/01/13 12:01:07;;;;;;;31.37;19.30;;;-2.00;90.80;;;;;;5052228;28;20205;-74
2024/01/13 12:03:34;;;;;;;32.27;18.50;;;-1.70;90.50;;;;;;5057587;28;20229;-78
2024/01/13 12:06:03;;;;;;;31.60;17.80;;;-1.50;89.70;;;;;;5050375;28;20231;-78
2024/01/13 12:08:30;;;;;;;30.10;17.37;;;-1.70;84.80;;;;;;5053264;28;20288;-75
2024/01/13 12:10:58;;;;;;;28.27;16.97;;;-2.00;87.30;;;;;;5057479;28;20203;-75
2024/01/13 12:13:25;;;;;;;28.50;17.33;;;-2.20;90.00;;;;;;5054745;28;20226;-74
2024/01/13 12:15:53;;;;;;;29.33;17.33;;;-2.20;90.30;;;;;;5051622;28;20203;-75
2024/01/13 12:18:21;;;;;;;27.57;16.90;;;-2.20;90.30;;;;;;5034935;28;20292;-75
2024/01/13 12:20:49;;;;;;;28.10;17.13;;;-2.30;90.40;;;;;;5052030;28;20201;-75
2024/01/13 12:23:17;;;;;;;33.10;17.93;;;-2.50;90.40;;;;;;5051890;28;20574;-76
2024/01/13 12:25:44;;;;;;;28.83;17.67;;;-2.40;90.90;;;;;;5049611;28;20204;-79
2024/01/13 12:28:12;;;;;;;34.63;18.73;;;-2.20;90.90;;;;;;5052053;28;20205;-74
2024/01/13 12:30:40;;;;;;;32.87;18.10;;;-2.10;90.20;;;;;;5055085;28;20197;-74
2024/01/13 12:33:12;;;;;;;28.47;16.70;;;-1.80;90.70;;;;;;5054520;28;20259;-74
2024/01/13 12:35:39;;;;;;;27.13;16.03;;;-1.50;86.60;;;;;;5055766;28;20280;-74
2024/01/13 12:38:06;;;;;;;24.63;15.07;;;-1.50;87.50;;;;;;5051207;28;20205;-74
2024/01/13 12:40:33;;;;;;;25.50;14.47;;;-1.40;85.20;;;;;;5050207;28;20202;-74
2024/01/13 12:43:00;;;;;;;25.33;15.03;;;-1.50;87.20;;;;;;5050132;28;20190;-75
2024/01/13 12:45:29;;;;;;;21.70;13.37;;;-1.40;85.00;;;;;;5051137;28;20214;-76
2024/01/13 12:48:12;;;;;;;23.77;14.07;;;-1.40;85.60;;;;;;5057045;28;20556;-76
2024/01/13 12:50:39;;;;;;;20.40;12.70;;;-1.50;84.80;;;;;;5048942;28;20213;-79
2024/01/13 12:53:06;;;;;;;23.93;13.47;;;-2.00;84.60;;;;;;5052854;28;20304;-77